sensor_id;sensor_type;location;lat;lon;timestamp;temperature;humidity
19974;DHT22;10148;47.694;9.442;2023-03-13T00:00:34;7.70;99.90
19974;DHT22;10148;47.694;9.442;2023-03-13T00:03:00;7.70;99.90
19974;DHT22;10148;47.694;9.442;2023-03-13T00:05:25;7.70;99.90
19974;DHT22;10148;47.694;9.442;2023-03-13T00:07:51;7.70;99.90
19974;DHT22;10148;47.694;9.442;2023-03-13T00:10:16;7.70;99.90
19974;DHT22;10148;47.694;9.442;2023-03-13T00:12:42;7.70;99.90
19974;DHT22;10148;47.694;9.442;2023-03-13T00:15:08;7.70;99.90
19974;DHT22;10148;47.694;9.442;2023-03-13T00:17:33;7.70;99.90
19974;DHT22;10148;47.694;9.442;2023-03-13T00:19:59;7.70;99.90
19974;DHT22;10148;47.694;9.442;2023-03-13T00:22:25;7.70;99.90
19974;DHT22;10148;47.694;9.442;2023-03-13T00:24:51;7.70;99.90
19974;DHT22;10148;47.694;9.442;2023-03-13T00:27:16;7.70;99.90
19974;DHT22;10148;47.694;9.442;2023-03-13T00:29:42;7.80;99.90
19974;DHT22;10148;47.694;9.442;2023-03-13T00:32:07;7.80;99.90
19974;DHT22;10148;47.694;9.442;2023-03-13T00:34:33;7.80;99.90
19974;DHT22;10148;47.694;9.442;2023-03-13T00:36:58;7.80;99.90
19974;DHT22;10148;47.694;9.442;2023-03-13T00:39:24;7.80;99.90
19974;DHT22;10148;47.694;9.442;2023-03-13T00:41:49;7.80;99.90
19974;DHT22;10148;47.694;9.442;2023-03-13T00:44:15;7.80;99.90
19974;DHT22;10148;47.694;9.442;2023-03-13T00:46:40;7.80;99.90
19974;DHT22;10148;47.694;9.442;2023-03-13T00:49:06;7.80;99.90
19974;DHT22;10148;47.694;9.442;2023-03-13T00:51:31;7.80;99.90
19974;DHT22;10148;47.694;9.442;2023-03-13T00:53:58;7.80;99.90
19974;DHT22;10148;47.694;9.442;2023-03-13T00:56:27;7.70;99.90
19974;DHT22;10148;47.694;9.442;2023-03-13T00:58:52;7.70;99.90
19974;DHT22;10148;47.694;9.442;2023-03-13T01:01:22;7.70;99.90
19974;DHT22;10148;47.694;9.442;2023-03-13T01:03:51;7.70;99.90
19974;DHT22;10148;47.694;9.442;2023-03-13T01:06:20;7.70;99.90
19974;DHT22;10148;47.694;9.442;2023-03-13T01:08:46;7.70;99.90
19974;DHT22;10148;47.694;9.442;2023-03-13T01:11:14;7.70;99.90
19974;DHT22;10148;47.694;9.442;2023-03-13T01:13:40;7.70;99.90
19974;DHT22;10148;47.694;9.442;2023-03-13T01:16:09;7.80;99.90
19974;DHT22;10148;47.694;9.442;2023-03-13T01:18:37;7.80;99.90
19974;DHT22;10148;47.694;9.442;2023-03-13T01:21:03;7.80;99.90
19974;DHT22;10148;47.694;9.442;2023-03-13T01:23:29;7.80;99.90
19974;DHT22;10148;47.694;9.442;2023-03-13T01:25:55;7.80;99.90
19974;DHT22;10148;47.694;9.442;2023-03-13T01:28:22;7.80;99.90
19974;DHT22;10148;47.694;9.442;2023-03-13T01:30:47;7.80;99.90
19974;DHT22;10148;47.694;9.442;2023-03-13T01:33:13;7.80;99.90
19974;DHT22;10148;47.694;9.442;2023-03-13T01:35:38;7.80;99.90
19974;DHT22;10148;47.694;9.442;2023-03-13T01:38:04;7.80;99.90
19974;DHT22;10148;47.694;9.442;2023-03-13T01:40:30;7.80;99.90
19974;DHT22;10148;47.694;9.442;2023-03-13T01:42:57;7.90;99.90
19974;DHT22;10148;47.694;9.442;2023-03-13T01:48:36;7.90;99.90
19974;DHT22;10148;47.694;9.442;2023-03-13T01:51:13;7.90;99.90
19974;DHT22;10148;47.694;9.442;2023-03-13T01:53:43;7.90;99.90
19974;DHT22;10148;47.694;9.442;2023-03-13T01:56:15;8.00;99.90
19974;DHT22;10148;47.694;9.442;2023-03-13T01:58:41;8.00;99.90
19974;DHT22;10148;47.694;9.442;2023-03-13T02:01:08;7.90;99.90
19974;DHT22;10148;47.694;9.442;2023-03-13T02:03:35;7.90;99.90
19974;DHT22;10148;47.694;9.442;2023-03-13T02:06:03;7.90;99.90
19974;DHT22;10148;47.694;9.442;2023-03-13T02:08:36;8.00;99.90
19974;DHT22;10148;47.694;9.442;2023-03-13T02:11:19;7.90;99.90
19974;DHT22;10148;47.694;9.442;2023-03-13T02:13:47;7.90;99.90
19974;DHT22;10148;47.694;9.442;2023-03-13T02:16:15;7.90;99.90
19974;DHT22;10148;47.694;9.442;2023-03-13T02:18:41;7.90;99.90
19974;DHT22;10148;47.694;9.442;2023-03-13T02:21:39;7.80;99.90
19974;DHT22;10148;47.694;9.442;2023-03-13T02:26:32;7.80;99.90
19974;DHT22;10148;47.694;9.442;2023-03-13T02:28:58;7.80;99.90
19974;DHT22;10148;47.694;9.442;2023-03-13T02:31:23;7.80;99.90
19974;DHT22;10148;47.694;9.442;2023-03-13T02:33:49;7.80;99.90
19974;DHT22;10148;47.694;9.442;2023-03-13T02:36:15;7.80;99.90
19974;DHT22;10148;47.694;9.442;2023-03-13T02:38:50;7.80;99.90
19974;DHT22;10148;47.694;9.442;2023-03-13T02:41:18;7.80;99.90
19974;DHT22;10148;47.694;9.442;2023-03-13T02:43:44;7.80;99.90
19974;DHT22;10148;47.694;9.442;2023-03-13T02:46:15;7.80;99.90
19974;DHT22;10148;47.694;9.442;2023-03-13T02:49:09;7.80;99.90
19974;DHT22;10148;47.694;9.442;2023-03-13T02:51:43;7.80;99.90
19974;DHT22;10148;47.694;9.442;2023-03-13T02:54:13;7.90;99.90
19974;DHT22;10148;47.694;9.442;2023-03-13T02:56:42;7.80;99.90
19974;DHT22;10148;47.694;9.442;2023-03-13T02:59:08;7.80;99.90
19974;DHT22;10148;47.694;9.442;2023-03-13T03:01:33;7.80;99.90
19974;DHT22;10148;47.694;9.442;2023-03-13T03:03:59;7.80;99.90
19974;DHT22;10148;47.694;9.442;2023-03-13T03:06:24;7.80;99.90
19974;DHT22;10148;47.694;9.442;2023-03-13T03:08:50;7.70;99.90
19974;DHT22;10148;47.694;9.442;2023-03-13T03:11:16;7.60;99.90
19974;DHT22;10148;47.694;9.442;2023-03-13T03:13:41;7.60;99.90
19974;DHT22;10148;47.694;9.442;2023-03-13T03:16:10;7.60;99.90
19974;DHT22;10148;47.694;9.442;2023-03-13T03:18:36;7.50;99.90
19974;DHT22;10148;47.694;9.442;2023-03-13T03:21:03;7.50;99.90
19974;DHT22;10148;47.694;9.442;2023-03-13T03:23:34;7.50;99.90
19974;DHT22;10148;47.694;9.442;2023-03-13T03:26:00;7.50;99.90
19974;DHT22;10148;47.694;9.442;2023-03-13T03:28:26;7.50;99.90
19974;DHT22;10148;47.694;9.442;2023-03-13T03:30:52;7.50;99.90
19974;DHT22;10148;47.694;9.442;2023-03-13T03:33:19;7.50;99.90
19974;DHT22;10148;47.694;9.442;2023-03-13T03:35:45;7.50;99.90
19974;DHT22;10148;47.694;9.442;2023-03-13T03:38:10;7.50;99.90
19974;DHT22;10148;47.694;9.442;2023-03-13T03:40:36;7.50;99.90
19974;DHT22;10148;47.694;9.442;2023-03-13T03:43:01;7.40;99.90
19974;DHT22;10148;47.694;9.442;2023-03-13T03:45:27;7.40;99.90
19974;DHT22;10148;47.694;9.442;2023-03-13T03:47:52;7.40;99.90
19974;DHT22;10148;47.694;9.442;2023-03-13T03:50:18;7.40;99.90
19974;DHT22;10148;47.694;9.442;2023-03-13T03:52:43;7.40;99.90
19974;DHT22;10148;47.694;9.442;2023-03-13T03:55:09;7.40;99.90
19974;DHT22;10148;47.694;9.442;2023-03-13T03:57:34;7.30;99.90
19974;DHT22;10148;47.694;9.442;2023-03-13T04:00:00;7.30;99.90
19974;DHT22;10148;47.694;9.442;2023-03-13T04:02:25;7.40;99.90
19974;DHT22;10148;47.694;9.442;2023-03-13T04:04:51;7.30;99.90
19974;DHT22;10148;47.694;9.442;2023-03-13T04:07:17;7.30;99.90
19974;DHT22;10148;47.694;9.442;2023-03-13T04:09:42;7.30;99.90
19974;DHT22;10148;47.694;9.442;2023-03-13T04:12:08;7.30;99.90
19974;DHT22;10148;47.694;9.442;2023-03-13T04:14:33;7.30;99.90
19974;DHT22;10148;47.694;9.442;2023-03-13T04:16:59;7.20;99.90
19974;DHT22;10148;47.694;9.442;2023-03-13T04:19:24;7.30;99.90
19974;DHT22;10148;47.694;9.442;2023-03-13T04:21:50;7.30;99.90
19974;DHT22;10148;47.694;9.442;2023-03-13T04:24:15;7.30;99.90
19974;DHT22;10148;47.694;9.442;2023-03-13T04:26:41;7.40;99.90
19974;DHT22;10148;47.694;9.442;2023-03-13T04:29:06;7.50;99.90
19974;DHT22;10148;47.694;9.442;2023-03-13T04:31:32;7.50;99.90
19974;DHT22;10148;47.694;9.442;2023-03-13T04:33:57;7.60;99.90
19974;DHT22;10148;47.694;9.442;2023-03-13T04:36:23;7.70;99.90
19974;DHT22;10148;47.694;9.442;2023-03-13T04:38:48;7.70;99.90
19974;DHT22;10148;47.694;9.442;2023-03-13T04:41:14;7.90;99.90
19974;DHT22;10148;47.694;9.442;2023-03-13T04:43:40;8.10;99.90
19974;DHT22;10148;47.694;9.442;2023-03-13T04:46:05;8.20;99.90
19974;DHT22;10148;47.694;9.442;2023-03-13T04:48:31;8.40;99.90
19974;DHT22;10148;47.694;9.442;2023-03-13T04:50:56;8.50;99.90
19974;DHT22;10148;47.694;9.442;2023-03-13T04:53:22;8.60;99.90
19974;DHT22;10148;47.694;9.442;2023-03-13T04:55:48;8.60;99.90
19974;DHT22;10148;47.694;9.442;2023-03-13T04:58:14;8.60;99.90
19974;DHT22;10148;47.694;9.442;2023-03-13T05:00:40;8.60;99.90
19974;DHT22;10148;47.694;9.442;2023-03-13T05:03:05;8.70;99.90
19974;DHT22;10148;47.694;9.442;2023-03-13T05:05:33;8.70;99.90
19974;DHT22;10148;47.694;9.442;2023-03-13T05:07:59;8.70;99.90
19974;DHT22;10148;47.694;9.442;2023-03-13T05:10:25;8.70;99.90
19974;DHT22;10148;47.694;9.442;2023-03-13T05:12:50;8.70;99.90
19974;DHT22;10148;47.694;9.442;2023-03-13T05:15:16;8.70;99.90
19974;DHT22;10148;47.694;9.442;2023-03-13T05:17:41;8.70;99.90
19974;DHT22;10148;47.694;9.442;2023-03-13T05:20:08;8.70;99.90
19974;DHT22;10148;47.694;9.442;2023-03-13T05:22:36;8.80;99.90
19974;DHT22;10148;47.694;9.442;2023-03-13T05:25:01;8.80;99.90
19974;DHT22;10148;47.694;9.442;2023-03-13T05:27:28;8.80;99.90
19974;DHT22;10148;47.694;9.442;2023-03-13T05:29:53;8.80;99.90
19974;DHT22;10148;47.694;9.442;2023-03-13T05:32:19;8.80;99.90
19974;DHT22;10148;47.694;9.442;2023-03-13T05:34:44;8.80;99.90
19974;DHT22;10148;47.694;9.442;2023-03-13T05:37:10;8.70;99.90
19974;DHT22;10148;47.694;9.442;2023-03-13T05:39:35;8.80;99.90
19974;DHT22;10148;47.694;9.442;2023-03-13T05:42:01;8.70;99.90
19974;DHT22;10148;47.694;9.442;2023-03-13T05:44:26;8.60;99.90
19974;DHT22;10148;47.694;9.442;2023-03-13T05:46:52;8.60;99.90
19974;DHT22;10148;47.694;9.442;2023-03-13T05:49:17;8.60;99.90
19974;DHT22;10148;47.694;9.442;2023-03-13T05:51:43;8.60;99.90
19974;DHT22;10148;47.694;9.442;2023-03-13T05:54:08;8.50;99.90
19974;DHT22;10148;47.694;9.442;2023-03-13T05:56:34;8.50;99.90
19974;DHT22;10148;47.694;9.442;2023-03-13T05:59:00;8.50;99.90
19974;DHT22;10148;47.694;9.442;2023-03-13T06:01:25;8.40;99.90
19974;DHT22;10148;47.694;9.442;2023-03-13T06:03:51;8.40;99.90
19974;DHT22;10148;47.694;9.442;2023-03-13T06:06:16;8.30;99.90
19974;DHT22;10148;47.694;9.442;2023-03-13T06:08:42;8.30;99.90
19974;DHT22;10148;47.694;9.442;2023-03-13T06:11:07;8.20;99.90
19974;DHT22;10148;47.694;9.442;2023-03-13T06:13:33;8.20;99.90
19974;DHT22;10148;47.694;9.442;2023-03-13T06:15:58;8.20;99.90
19974;DHT22;10148;47.694;9.442;2023-03-13T06:18:25;8.10;99.90
19974;DHT22;10148;47.694;9.442;2023-03-13T06:20:56;8.10;99.90
19974;DHT22;10148;47.694;9.442;2023-03-13T06:23:22;8.20;99.90
19974;DHT22;10148;47.694;9.442;2023-03-13T06:25:47;8.20;99.90
19974;DHT22;10148;47.694;9.442;2023-03-13T06:28:13;8.30;99.90
19974;DHT22;10148;47.694;9.442;2023-03-13T06:30:39;8.30;99.90
19974;DHT22;10148;47.694;9.442;2023-03-13T06:33:05;8.30;99.90
19974;DHT22;10148;47.694;9.442;2023-03-13T06:35:30;8.30;99.90
19974;DHT22;10148;47.694;9.442;2023-03-13T06:37:56;8.30;99.90
19974;DHT22;10148;47.694;9.442;2023-03-13T06:40:21;8.20;99.90
19974;DHT22;10148;47.694;9.442;2023-03-13T06:42:47;8.20;99.90
19974;DHT22;10148;47.694;9.442;2023-03-13T06:45:12;8.20;99.90
19974;DHT22;10148;47.694;9.442;2023-03-13T06:47:38;8.20;99.90
19974;DHT22;10148;47.694;9.442;2023-03-13T06:50:04;8.20;99.90
19974;DHT22;10148;47.694;9.442;2023-03-13T06:52:29;8.20;99.90
19974;DHT22;10148;47.694;9.442;2023-03-13T06:54:55;8.20;99.90
19974;DHT22;10148;47.694;9.442;2023-03-13T06:57:20;8.20;99.90
19974;DHT22;10148;47.694;9.442;2023-03-13T06:59:46;8.20;99.90
19974;DHT22;10148;47.694;9.442;2023-03-13T07:02:12;8.20;99.90
19974;DHT22;10148;47.694;9.442;2023-03-13T07:04:37;8.20;99.90
19974;DHT22;10148;47.694;9.442;2023-03-13T07:07:03;8.30;99.90
19974;DHT22;10148;47.694;9.442;2023-03-13T07:09:29;8.30;99.90
19974;DHT22;10148;47.694;9.442;2023-03-13T07:11:55;8.30;99.90
19974;DHT22;10148;47.694;9.442;2023-03-13T07:14:22;8.40;99.90
19974;DHT22;10148;47.694;9.442;2023-03-13T07:16:47;8.40;99.90
19974;DHT22;10148;47.694;9.442;2023-03-13T07:19:13;8.50;99.90
19974;DHT22;10148;47.694;9.442;2023-03-13T07:21:40;8.50;99.90
19974;DHT22;10148;47.694;9.442;2023-03-13T07:24:05;8.50;99.90
19974;DHT22;10148;47.694;9.442;2023-03-13T07:26:31;8.50;99.90
19974;DHT22;10148;47.694;9.442;2023-03-13T07:28:57;8.60;99.90
19974;DHT22;10148;47.694;9.442;2023-03-13T07:31:22;8.60;99.90
19974;DHT22;10148;47.694;9.442;2023-03-13T07:33:49;8.70;99.90
19974;DHT22;10148;47.694;9.442;2023-03-13T07:36:17;8.80;99.90
19974;DHT22;10148;47.694;9.442;2023-03-13T07:38:47;8.80;99.90
19974;DHT22;10148;47.694;9.442;2023-03-13T07:41:13;8.80;99.90
19974;DHT22;10148;47.694;9.442;2023-03-13T07:43:38;8.90;99.90
19974;DHT22;10148;47.694;9.442;2023-03-13T07:46:05;9.00;99.90
19974;DHT22;10148;47.694;9.442;2023-03-13T07:48:33;9.20;99.90
19974;DHT22;10148;47.694;9.442;2023-03-13T07:50:59;9.40;99.90
19974;DHT22;10148;47.694;9.442;2023-03-13T07:53:26;9.50;99.90
19974;DHT22;10148;47.694;9.442;2023-03-13T07:56:02;9.70;99.90
19974;DHT22;10148;47.694;9.442;2023-03-13T07:58:30;9.80;99.90
19974;DHT22;10148;47.694;9.442;2023-03-13T08:00:56;9.80;99.90
19974;DHT22;10148;47.694;9.442;2023-03-13T08:03:23;9.90;99.90
19974;DHT22;10148;47.694;9.442;2023-03-13T08:05:59;9.90;99.90
19974;DHT22;10148;47.694;9.442;2023-03-13T08:08:25;10.00;99.90
19974;DHT22;10148;47.694;9.442;2023-03-13T08:10:51;10.10;99.90
19974;DHT22;10148;47.694;9.442;2023-03-13T08:13:16;10.20;99.90
19974;DHT22;10148;47.694;9.442;2023-03-13T08:15:42;10.30;99.90
19974;DHT22;10148;47.694;9.442;2023-03-13T08:18:07;10.30;99.90
19974;DHT22;10148;47.694;9.442;2023-03-13T08:20:33;10.40;99.90
19974;DHT22;10148;47.694;9.442;2023-03-13T08:22:58;10.50;99.90
19974;DHT22;10148;47.694;9.442;2023-03-13T08:25:24;10.50;99.90
19974;DHT22;10148;47.694;9.442;2023-03-13T08:27:49;10.50;99.90
19974;DHT22;10148;47.694;9.442;2023-03-13T08:30:15;10.60;99.90
19974;DHT22;10148;47.694;9.442;2023-03-13T08:32:41;10.60;99.90
19974;DHT22;10148;47.694;9.442;2023-03-13T08:35:07;10.60;99.90
19974;DHT22;10148;47.694;9.442;2023-03-13T08:37:32;10.70;99.90
19974;DHT22;10148;47.694;9.442;2023-03-13T08:39:58;10.80;99.90
19974;DHT22;10148;47.694;9.442;2023-03-13T08:42:25;11.00;99.90
19974;DHT22;10148;47.694;9.442;2023-03-13T08:44:50;11.00;99.90
19974;DHT22;10148;47.694;9.442;2023-03-13T08:47:16;11.10;99.90
19974;DHT22;10148;47.694;9.442;2023-03-13T08:49:42;11.10;99.90
19974;DHT22;10148;47.694;9.442;2023-03-13T08:52:08;11.20;99.90
19974;DHT22;10148;47.694;9.442;2023-03-13T08:54:34;11.30;99.90
19974;DHT22;10148;47.694;9.442;2023-03-13T08:56:59;11.40;99.90
19974;DHT22;10148;47.694;9.442;2023-03-13T08:59:26;11.60;99.90
19974;DHT22;10148;47.694;9.442;2023-03-13T09:01:52;11.70;99.90
19974;DHT22;10148;47.694;9.442;2023-03-13T09:04:17;11.90;99.90
19974;DHT22;10148;47.694;9.442;2023-03-13T09:06:43;12.00;99.90
19974;DHT22;10148;47.694;9.442;2023-03-13T09:09:09;12.10;99.90
19974;DHT22;10148;47.694;9.442;2023-03-13T09:11:37;12.10;99.90
19974;DHT22;10148;47.694;9.442;2023-03-13T09:14:03;12.10;99.90
19974;DHT22;10148;47.694;9.442;2023-03-13T09:16:32;12.10;99.90
19974;DHT22;10148;47.694;9.442;2023-03-13T09:18:58;12.10;99.90
19974;DHT22;10148;47.694;9.442;2023-03-13T09:21:29;12.20;99.90
19974;DHT22;10148;47.694;9.442;2023-03-13T09:23:55;12.30;99.90
19974;DHT22;10148;47.694;9.442;2023-03-13T09:26:21;12.40;99.90
19974;DHT22;10148;47.694;9.442;2023-03-13T09:28:47;12.50;99.90
19974;DHT22;10148;47.694;9.442;2023-03-13T09:31:15;12.50;99.90
19974;DHT22;10148;47.694;9.442;2023-03-13T09:33:42;12.50;99.90
19974;DHT22;10148;47.694;9.442;2023-03-13T09:36:09;12.60;99.90
19974;DHT22;10148;47.694;9.442;2023-03-13T09:38:35;12.60;99.90
19974;DHT22;10148;47.694;9.442;2023-03-13T09:44:10;12.70;99.90
19974;DHT22;10148;47.694;9.442;2023-03-13T09:49:34;12.90;99.90
19974;DHT22;10148;47.694;9.442;2023-03-13T09:52:15;13.00;99.90
19974;DHT22;10148;47.694;9.442;2023-03-13T09:54:49;13.10;99.90
19974;DHT22;10148;47.694;9.442;2023-03-13T09:59:56;13.10;99.90
19974;DHT22;10148;47.694;9.442;2023-03-13T10:02:32;13.10;99.90
19974;DHT22;10148;47.694;9.442;2023-03-13T10:05:07;13.30;99.90
19974;DHT22;10148;47.694;9.442;2023-03-13T10:07:35;13.50;99.90
19974;DHT22;10148;47.694;9.442;2023-03-13T10:10:01;13.60;99.90
19974;DHT22;10148;47.694;9.442;2023-03-13T10:12:28;13.80;99.90
19974;DHT22;10148;47.694;9.442;2023-03-13T10:17:42;14.10;99.90
19974;DHT22;10148;47.694;9.442;2023-03-13T10:20:25;14.20;99.90
19974;DHT22;10148;47.694;9.442;2023-03-13T10:22:56;14.10;99.90
19974;DHT22;10148;47.694;9.442;2023-03-13T10:25:28;14.20;99.90
19974;DHT22;10148;47.694;9.442;2023-03-13T10:27:54;14.30;99.90
19974;DHT22;10148;47.694;9.442;2023-03-13T10:30:34;14.30;99.90
19974;DHT22;10148;47.694;9.442;2023-03-13T10:33:18;14.40;99.90
19974;DHT22;10148;47.694;9.442;2023-03-13T10:35:44;14.60;99.90
19974;DHT22;10148;47.694;9.442;2023-03-13T10:38:20;14.60;99.90
19974;DHT22;10148;47.694;9.442;2023-03-13T10:40:58;14.70;99.90
19974;DHT22;10148;47.694;9.442;2023-03-13T10:43:25;14.80;99.90
19974;DHT22;10148;47.694;9.442;2023-03-13T10:45:51;14.90;99.90
19974;DHT22;10148;47.694;9.442;2023-03-13T10:48:20;14.90;99.90
19974;DHT22;10148;47.694;9.442;2023-03-13T10:50:48;15.00;99.90
19974;DHT22;10148;47.694;9.442;2023-03-13T10:55:57;15.40;99.90
19974;DHT22;10148;47.694;9.442;2023-03-13T10:58:40;15.50;99.90
19974;DHT22;10148;47.694;9.442;2023-03-13T11:01:25;15.60;99.90
19974;DHT22;10148;47.694;9.442;2023-03-13T11:03:54;15.70;99.90
19974;DHT22;10148;47.694;9.442;2023-03-13T11:06:29;15.70;99.90
19974;DHT22;10148;47.694;9.442;2023-03-13T11:09:12;15.70;99.90
19974;DHT22;10148;47.694;9.442;2023-03-13T11:11:52;15.70;99.90
19974;DHT22;10148;47.694;9.442;2023-03-13T11:14:24;15.70;99.90
19974;DHT22;10148;47.694;9.442;2023-03-13T11:16:54;15.80;99.90
19974;DHT22;10148;47.694;9.442;2023-03-13T11:27:57;16.30;99.90
19974;DHT22;10148;47.694;9.442;2023-03-13T11:30:46;16.70;99.90
19974;DHT22;10148;47.694;9.442;2023-03-13T11:33:22;16.70;99.90
19974;DHT22;10148;47.694;9.442;2023-03-13T11:38:42;16.90;99.90
19974;DHT22;10148;47.694;9.442;2023-03-13T11:41:39;16.90;99.90
19974;DHT22;10148;47.694;9.442;2023-03-13T11:44:20;17.10;99.90
19974;DHT22;10148;47.694;9.442;2023-03-13T11:47:32;17.10;99.90
19974;DHT22;10148;47.694;9.442;2023-03-13T12:01:19;17.70;99.90
19974;DHT22;10148;47.694;9.442;2023-03-13T12:03:58;18.00;99.90
19974;DHT22;10148;47.694;9.442;2023-03-13T12:06:33;18.40;99.90
19974;DHT22;10148;47.694;9.442;2023-03-13T12:11:53;18.80;99.90
19974;DHT22;10148;47.694;9.442;2023-03-13T12:14:29;18.90;99.90
19974;DHT22;10148;47.694;9.442;2023-03-13T12:17:11;19.00;99.90
19974;DHT22;10148;47.694;9.442;2023-03-13T12:22:22;19.00;99.90
19974;DHT22;10148;47.694;9.442;2023-03-13T12:25:12;18.70;99.90
19974;DHT22;10148;47.694;9.442;2023-03-13T12:27:45;18.40;99.90
19974;DHT22;10148;47.694;9.442;2023-03-13T12:30:48;18.50;99.90
19974;DHT22;10148;47.694;9.442;2023-03-13T12:33:22;18.60;99.90
19974;DHT22;10148;47.694;9.442;2023-03-13T12:35:56;18.80;99.90
19974;DHT22;10148;47.694;9.442;2023-03-13T12:38:30;18.90;99.90
19974;DHT22;10148;47.694;9.442;2023-03-13T12:41:18;18.80;99.90
19974;DHT22;10148;47.694;9.442;2023-03-13T12:43:47;18.90;99.90
19974;DHT22;10148;47.694;9.442;2023-03-13T12:55:04;19.50;99.90
19974;DHT22;10148;47.694;9.442;2023-03-13T13:00:20;20.00;99.90
19974;DHT22;10148;47.694;9.442;2023-03-13T13:02:47;20.00;99.90
19974;DHT22;10148;47.694;9.442;2023-03-13T13:05:25;20.30;99.90
19974;DHT22;10148;47.694;9.442;2023-03-13T13:07:52;20.50;99.90
19974;DHT22;10148;47.694;9.442;2023-03-13T13:10:21;20.70;99.90
19974;DHT22;10148;47.694;9.442;2023-03-13T13:15:47;20.50;99.90
19974;DHT22;10148;47.694;9.442;2023-03-13T13:18:25;20.50;99.90
19974;DHT22;10148;47.694;9.442;2023-03-13T13:23:41;20.60;99.90
19974;DHT22;10148;47.694;9.442;2023-03-13T13:28:59;21.00;99.90
19974;DHT22;10148;47.694;9.442;2023-03-13T13:36:56;21.60;99.90
19974;DHT22;10148;47.694;9.442;2023-03-13T13:39:42;21.40;99.90
19974;DHT22;10148;47.694;9.442;2023-03-13T13:47:47;21.10;99.90
19974;DHT22;10148;47.694;9.442;2023-03-13T13:52:46;21.00;99.90
19974;DHT22;10148;47.694;9.442;2023-03-13T13:55:28;21.10;99.90
19974;DHT22;10148;47.694;9.442;2023-03-13T13:58:11;21.20;99.90
19974;DHT22;10148;47.694;9.442;2023-03-13T14:00:44;21.30;99.90
19974;DHT22;10148;47.694;9.442;2023-03-13T14:03:24;21.10;99.90
19974;DHT22;10148;47.694;9.442;2023-03-13T14:06:14;21.00;99.90
19974;DHT22;10148;47.694;9.442;2023-03-13T14:08:41;21.00;99.90
19974;DHT22;10148;47.694;9.442;2023-03-13T14:16:38;20.80;99.90
19974;DHT22;10148;47.694;9.442;2023-03-13T14:21:48;20.90;99.90
19974;DHT22;10148;47.694;9.442;2023-03-13T14:24:14;21.10;99.90
19974;DHT22;10148;47.694;9.442;2023-03-13T14:26:44;21.20;99.90
19974;DHT22;10148;47.694;9.442;2023-03-13T14:29:16;21.00;99.90
19974;DHT22;10148;47.694;9.442;2023-03-13T14:31:49;20.90;99.90
19974;DHT22;10148;47.694;9.442;2023-03-13T14:34:16;21.00;99.90
19974;DHT22;10148;47.694;9.442;2023-03-13T14:36:49;21.00;99.90
19974;DHT22;10148;47.694;9.442;2023-03-13T14:39:37;20.90;99.90
19974;DHT22;10148;47.694;9.442;2023-03-13T14:42:11;20.90;99.90
19974;DHT22;10148;47.694;9.442;2023-03-13T14:44:37;21.00;99.90
19974;DHT22;10148;47.694;9.442;2023-03-13T14:47:25;21.00;99.90
19974;DHT22;10148;47.694;9.442;2023-03-13T14:49:57;21.00;99.90
19974;DHT22;10148;47.694;9.442;2023-03-13T14:52:24;21.30;99.90
19974;DHT22;10148;47.694;9.442;2023-03-13T14:54:56;21.40;99.90
19974;DHT22;10148;47.694;9.442;2023-03-13T14:57:25;21.30;99.90
19974;DHT22;10148;47.694;9.442;2023-03-13T14:59:52;21.50;99.90
19974;DHT22;10148;47.694;9.442;2023-03-13T15:02:29;21.80;99.90
19974;DHT22;10148;47.694;9.442;2023-03-13T15:05:04;22.00;99.90
19974;DHT22;10148;47.694;9.442;2023-03-13T15:07:51;22.50;99.90
19974;DHT22;10148;47.694;9.442;2023-03-13T15:10:36;23.00;99.90
19974;DHT22;10148;47.694;9.442;2023-03-13T15:13:36;23.60;99.90
19974;DHT22;10148;47.694;9.442;2023-03-13T15:16:12;23.60;99.90
19974;DHT22;10148;47.694;9.442;2023-03-13T15:18:38;23.50;99.90
19974;DHT22;10148;47.694;9.442;2023-03-13T15:23:41;22.60;99.90
19974;DHT22;10148;47.694;9.442;2023-03-13T15:26:07;22.30;99.90
19974;DHT22;10148;47.694;9.442;2023-03-13T15:28:33;22.20;99.90
19974;DHT22;10148;47.694;9.442;2023-03-13T15:30:59;22.10;99.90
19974;DHT22;10148;47.694;9.442;2023-03-13T15:33:27;22.00;99.90
19974;DHT22;10148;47.694;9.442;2023-03-13T15:35:53;21.90;99.90
19974;DHT22;10148;47.694;9.442;2023-03-13T15:38:20;22.10;99.90
19974;DHT22;10148;47.694;9.442;2023-03-13T15:40:47;22.50;99.90
19974;DHT22;10148;47.694;9.442;2023-03-13T15:43:13;22.70;99.90
19974;DHT22;10148;47.694;9.442;2023-03-13T15:45:41;22.70;99.90
19974;DHT22;10148;47.694;9.442;2023-03-13T15:48:27;22.90;99.90
19974;DHT22;10148;47.694;9.442;2023-03-13T15:50:56;23.00;99.90
19974;DHT22;10148;47.694;9.442;2023-03-13T15:53:33;22.70;99.90
19974;DHT22;10148;47.694;9.442;2023-03-13T15:56:04;22.50;99.90
19974;DHT22;10148;47.694;9.442;2023-03-13T15:58:34;22.40;99.90
19974;DHT22;10148;47.694;9.442;2023-03-13T16:00:59;22.40;99.90
19974;DHT22;10148;47.694;9.442;2023-03-13T16:03:27;22.60;99.90
19974;DHT22;10148;47.694;9.442;2023-03-13T16:05:55;22.60;99.90
19974;DHT22;10148;47.694;9.442;2023-03-13T16:08:25;22.50;99.90
19974;DHT22;10148;47.694;9.442;2023-03-13T16:10:51;22.40;99.90
19974;DHT22;10148;47.694;9.442;2023-03-13T16:13:18;22.30;99.90
19974;DHT22;10148;47.694;9.442;2023-03-13T16:15:44;22.20;99.90
19974;DHT22;10148;47.694;9.442;2023-03-13T16:18:17;22.50;99.90
19974;DHT22;10148;47.694;9.442;2023-03-13T16:20:44;23.00;99.90
19974;DHT22;10148;47.694;9.442;2023-03-13T16:23:10;23.40;99.90
19974;DHT22;10148;47.694;9.442;2023-03-13T16:25:36;23.70;99.90
19974;DHT22;10148;47.694;9.442;2023-03-13T16:28:02;24.00;99.90
19974;DHT22;10148;47.694;9.442;2023-03-13T16:30:30;23.70;99.90
19974;DHT22;10148;47.694;9.442;2023-03-13T16:32:56;23.50;99.90
19974;DHT22;10148;47.694;9.442;2023-03-13T16:35:23;23.00;99.90
19974;DHT22;10148;47.694;9.442;2023-03-13T16:37:51;22.90;99.90
19974;DHT22;10148;47.694;9.442;2023-03-13T16:40:20;22.70;99.90
19974;DHT22;10148;47.694;9.442;2023-03-13T16:42:46;22.70;99.90
19974;DHT22;10148;47.694;9.442;2023-03-13T16:45:12;22.80;99.90
19974;DHT22;10148;47.694;9.442;2023-03-13T16:47:39;22.70;99.90
19974;DHT22;10148;47.694;9.442;2023-03-13T16:50:24;22.40;99.90
19974;DHT22;10148;47.694;9.442;2023-03-13T16:52:51;22.10;99.90
19974;DHT22;10148;47.694;9.442;2023-03-13T16:55:18;21.80;99.90
19974;DHT22;10148;47.694;9.442;2023-03-13T16:57:44;21.50;99.90
19974;DHT22;10148;47.694;9.442;2023-03-13T17:00:17;21.20;99.90
19974;DHT22;10148;47.694;9.442;2023-03-13T17:02:43;20.80;99.90
19974;DHT22;10148;47.694;9.442;2023-03-13T17:05:09;20.40;99.90
19974;DHT22;10148;47.694;9.442;2023-03-13T17:07:36;20.10;99.90
19974;DHT22;10148;47.694;9.442;2023-03-13T17:10:05;19.90;99.90
19974;DHT22;10148;47.694;9.442;2023-03-13T17:12:39;19.70;99.90
19974;DHT22;10148;47.694;9.442;2023-03-13T17:15:05;19.70;99.90
19974;DHT22;10148;47.694;9.442;2023-03-13T17:17:31;19.60;99.90
19974;DHT22;10148;47.694;9.442;2023-03-13T17:19:57;19.40;99.90